Terminal Aerodrome Forecast
Issued by NWS

Home | Current Version | Previous Version | Text Only | Print | Product List | Glossary On
Versions: 1 2 3 4 5 6 7 8 9 10 11 12 13 14 15 16 17 18 19
000
FTAK31 PAJN 190800 AAC
TAFAGY
TAF AMD
PAGY 190824Z 1908/2006 21004KT 5SM -RA BR SCT005 BKN015
      TEMPO 1908/1912 2SM -RA BR BKN005 OVC015
     FM191200 20010KT 5SM -RA SCT015 OVC050
     FM191500 21017KT P6SM -RA SCT030 OVC050
     FM191800 21028G42KT P6SM VCSH OVC060
     FM200200 21021G36KT P6SM VCSH OVC060
      AMD LTD TO CLD VIS AND WIND=

USA.gov is the U.S. government's official web portal to all federal, state and local government web resources and services.